地図

経路データ

SID SEASON NUMBER BASIN SUBBASIN NAME ISO_TIME NATURE LAT LON WMO_WIND WMO_PRES WMO_AGENCY TRACK_TYPE DIST2LAND LANDFALL IFLAG USA_AGENCY USA_ATCF_ID USA_LAT USA_LON USA_RECORD USA_STATUS USA_WIND USA_PRES USA_SSHS USA_R34_NE USA_R34_SE USA_R34_SW USA_R34_NW USA_R50_NE USA_R50_SE USA_R50_SW USA_R50_NW USA_R64_NE USA_R64_SE USA_R64_SW USA_R64_NW USA_POCI USA_ROCI USA_RMW USA_EYE TOKYO_LAT TOKYO_LON TOKYO_GRADE TOKYO_WIND TOKYO_PRES TOKYO_R50_DIR TOKYO_R50_LONG TOKYO_R50_SHORT TOKYO_R30_DIR TOKYO_R30_LONG TOKYO_R30_SHORT TOKYO_LAND CMA_LAT CMA_LON CMA_CAT CMA_WIND CMA_PRES HKO_LAT HKO_LON HKO_CAT HKO_WIND HKO_PRES NEWDELHI_LAT NEWDELHI_LON NEWDELHI_GRADE NEWDELHI_WIND NEWDELHI_PRES NEWDELHI_CI NEWDELHI_DP NEWDELHI_POCI REUNION_LAT REUNION_LON REUNION_TYPE REUNION_WIND REUNION_PRES REUNION_TNUM REUNION_CI REUNION_RMW REUNION_R34_NE REUNION_R34_SE REUNION_R34_SW REUNION_R34_NW REUNION_R50_NE REUNION_R50_SE REUNION_R50_SW REUNION_R50_NW REUNION_R64_NE REUNION_R64_SE REUNION_R64_SW REUNION_R64_NW BOM_LAT BOM_LON BOM_TYPE BOM_WIND BOM_PRES BOM_TNUM BOM_CI BOM_RMW BOM_R34_NE BOM_R34_SE BOM_R34_SW BOM_R34_NW BOM_R50_NE BOM_R50_SE BOM_R50_SW BOM_R50_NW BOM_R64_NE BOM_R64_SE BOM_R64_SW BOM_R64_NW BOM_ROCI BOM_POCI BOM_EYE BOM_POS_METHOD BOM_PRES_METHOD NADI_LAT NADI_LON NADI_CAT NADI_WIND NADI_PRES WELLINGTON_LAT WELLINGTON_LON WELLINGTON_WIND WELLINGTON_PRES DS824_LAT DS824_LON DS824_STAGE DS824_WIND DS824_PRES TD9636_LAT TD9636_LON TD9636_STAGE TD9636_WIND TD9636_PRES TD9635_LAT TD9635_LON TD9635_WIND TD9635_PRES TD9635_ROCI NEUMANN_LAT NEUMANN_LON NEUMANN_CLASS NEUMANN_WIND NEUMANN_PRES MLC_LAT MLC_LON MLC_CLASS MLC_WIND MLC_PRES USA_GUST BOM_GUST BOM_GUST_PER REUNION_GUST REUNION_GUST_PER USA_SEAHGT USA_SEARAD_NE USA_SEARAD_SE USA_SEARAD_SW USA_SEARAD_NW STORM_SPEED STORM_DIR
1900254N25134 1900 27 WP MM NOT_NAMED 1900-09-11 04:00:00 NR 25.1000 133.800 main 725 717 __________O___ -1 25.1000 133.800 7 6 261
1900254N25134 1900 27 WP MM NOT_NAMED 1900-09-11 06:00:00 NR 25.0658 133.574 main 717 713 __________P___ -1 25.0658 133.574 7 6 261
1900254N25134 1900 27 WP MM NOT_NAMED 1900-09-11 09:00:00 NR 25.0145 133.225 main 713 703 __________P___ -1 25.0145 133.225 7 7 261
1900254N25134 1900 27 WP MM NOT_NAMED 1900-09-11 12:00:00 NR 24.9641 132.854 main 703 697 __________P___ -1 24.9641 132.854 7 7 262
1900254N25134 1900 27 WP MM NOT_NAMED 1900-09-11 15:00:00 NR 24.9156 132.447 main 701 698 __________P___ -1 24.9156 132.447 7 8 263
1900254N25134 1900 27 WP MM NOT_NAMED 1900-09-11 16:00:00 NR 24.9000 132.300 main 698 692 __________O___ -1 24.9000 132.300 7 8 264
1900254N25134 1900 27 WP MM NOT_NAMED 1900-09-11 18:00:00 NR 24.8699 131.990 main 692 689 __________P___ -1 24.8699 131.990 7 9 265
1900254N25134 1900 27 WP MM NOT_NAMED 1900-09-11 21:00:00 NR 24.8308 131.493 main 696 692 __________P___ -1 24.8308 131.493 7 9 266
1900254N25134 1900 27 WP MM NOT_NAMED 1900-09-12 00:00:00 NR 24.8044 130.978 main 692 692 __________P___ -1 24.8044 130.978 7 9 268
1900254N25134 1900 27 WP MM NOT_NAMED 1900-09-12 03:00:00 NR 24.7971 130.466 main 692 692 __________P___ -1 24.7971 130.466 7 9 270
1900254N25134 1900 27 WP MM NOT_NAMED 1900-09-12 04:00:00 NR 24.8000 130.300 main 693 693 __________O___ -1 24.8000 130.300 3 9 273
1900254N25134 1900 27 WP MM NOT_NAMED 1900-09-12 06:00:00 NR 24.8238 129.981 main 695 688 __________P___ -1 24.8238 129.981 3 9 276
1900254N25134 1900 27 WP MM NOT_NAMED 1900-09-12 09:00:00 NR 24.8788 129.515 main 691 691 __________P___ -1 24.8788 129.515 3 8 278
1900254N25134 1900 27 WP MM NOT_NAMED 1900-09-12 12:00:00 NR 24.9404 129.066 main 698 664 __________P___ -1 24.9404 129.066 3 8 278
1900254N25134 1900 27 WP MM NOT_NAMED 1900-09-12 15:00:00 NR 24.9896 128.638 main 664 654 __________P___ -1 24.9896 128.638 3 8 277
1900254N25134 1900 27 WP MM NOT_NAMED 1900-09-12 16:00:00 NR 25.0000 128.500 main 654 624 __________O___ -1 25.0000 128.500 4 8 271
1900254N25134 1900 27 WP MM NOT_NAMED 1900-09-12 18:00:00 NR 24.9976 128.219 main 624 584 __________P___ -1 24.9976 128.219 4 7 268
1900254N25134 1900 27 WP MM NOT_NAMED 1900-09-12 21:00:00 NR 24.9753 127.818 main 584 544 __________P___ -1 24.9753 127.818 4 7 265
1900254N25134 1900 27 WP MM NOT_NAMED 1900-09-13 00:00:00 NR 24.9416 127.444 main 544 513 __________P___ -1 24.9416 127.444 4 7 264
1900254N25134 1900 27 WP MM NOT_NAMED 1900-09-13 03:00:00 NR 24.9086 127.104 main 513 503 __________P___ -1 24.9086 127.104 4 6 264
1900254N25134 1900 27 WP MM NOT_NAMED 1900-09-13 04:00:00 NR 24.9000 127.000 main 503 483 __________O___ -1 24.9000 127.000 4 5 266
1900254N25134 1900 27 WP MM NOT_NAMED 1900-09-13 06:00:00 NR 24.8912 126.813 main 483 463 __________P___ -1 24.8912 126.813 4 5 268
1900254N25134 1900 27 WP MM NOT_NAMED 1900-09-13 09:00:00 NR 24.8846 126.563 main 463 433 __________P___ -1 24.8846 126.563 4 4 269
1900254N25134 1900 27 WP MM NOT_NAMED 1900-09-13 12:00:00 NR 24.8859 126.330 main 433 413 __________P___ -1 24.8859 126.330 4 4 271
1900254N25134 1900 27 WP MM NOT_NAMED 1900-09-13 15:00:00 NR 24.8952 126.087 main 413 403 __________P___ -1 24.8952 126.087 4 4 273
1900254N25134 1900 27 WP MM NOT_NAMED 1900-09-13 16:00:00 NR 24.9000 126.000 main 403 382 __________O___ -1 24.9000 126.000 4 5 272
1900254N25134 1900 27 WP MM NOT_NAMED 1900-09-13 18:00:00 NR 24.9056 125.808 main 382 352 __________P___ -1 24.9056 125.808 4 5 273
1900254N25134 1900 27 WP MM NOT_NAMED 1900-09-13 21:00:00 NR 24.9202 125.502 main 352 322 __________P___ -1 24.9202 125.502 4 6 274
1900254N25134 1900 27 WP MM NOT_NAMED 1900-09-14 00:00:00 NR 24.9451 125.173 main 322 281 __________P___ -1 24.9451 125.173 4 6 276
1900254N25134 1900 27 WP MM NOT_NAMED 1900-09-14 03:00:00 NR 24.9836 124.822 main 281 271 __________P___ -1 24.9836 124.822 4 6 277
1900254N25134 1900 27 WP MM NOT_NAMED 1900-09-14 04:00:00 NR 25.0000 124.700 main 271 241 __________O___ -1 25.0000 124.700 4 7 279
1900254N25134 1900 27 WP MM NOT_NAMED 1900-09-14 06:00:00 NR 25.0361 124.440 main 241 201 __________P___ -1 25.0361 124.440 4 7 280
1900254N25134 1900 27 WP MM NOT_NAMED 1900-09-14 09:00:00 NR 25.1028 124.031 main 201 162 __________P___ -1 25.1028 124.031 4 8 281
1900254N25134 1900 27 WP MM NOT_NAMED 1900-09-14 12:00:00 NR 25.1815 123.618 main 162 125 __________P___ -1 25.1815 123.618 4 7 283
1900254N25134 1900 27 WP MM NOT_NAMED 1900-09-14 15:00:00 NR 25.2693 123.224 main 125 115 __________P___ -1 25.2693 123.224 4 7 284
1900254N25134 1900 27 WP MM NOT_NAMED 1900-09-14 16:00:00 NR 25.3000 123.100 main 115 96 __________O___ -1 25.3000 123.100 4 6 286
1900254N25134 1900 27 WP MM NOT_NAMED 1900-09-14 18:00:00 NR 25.3579 122.880 main 100 75 __________P___ -1 25.3579 122.880 4 6 288
1900254N25134 1900 27 WP MM NOT_NAMED 1900-09-14 21:00:00 NR 25.4513 122.574 main 82 63 __________P___ -1 25.4513 122.574 4 6 290
1900254N25134 1900 27 WP MM NOT_NAMED 1900-09-15 00:00:00 NR 25.5527 122.286 main 73 60 __________P___ -1 25.5527 122.286 4 6 292
1900254N25134 1900 27 WP MM NOT_NAMED 1900-09-15 03:00:00 NR 25.6619 121.998 main 68 63 __________P___ -1 25.6619 121.998 4 6 293
1900254N25134 1900 27 WP MM NOT_NAMED 1900-09-15 04:00:00 NR 25.7000 121.900 main 63 59 __________O___ -1 25.7000 121.900 4 6 292
1900254N25134 1900 27 WP MM NOT_NAMED 1900-09-15 06:00:00 NR 25.7749 121.689 main 67 67 __________P___ -1 25.7749 121.689 4 6 292
1900254N25134 1900 27 WP MM NOT_NAMED 1900-09-15 09:00:00 NR 25.8936 121.366 main 78 78 __________P___ -1 25.8936 121.366 4 6 293
1900254N25134 1900 27 WP MM NOT_NAMED 1900-09-15 12:00:00 NR 26.0198 121.039 main 97 74 __________P___ -1 26.0198 121.039 4 6 294
1900254N25134 1900 27 WP MM NOT_NAMED 1900-09-15 15:00:00 NR 26.1537 120.709 main 74 66 __________P___ -1 26.1537 120.709 4 6 295
1900254N25134 1900 27 WP MM NOT_NAMED 1900-09-15 16:00:00 NR 26.2000 120.600 main 66 44 __________O___ -1 26.2000 120.600 4 7 294
1900254N25134 1900 27 WP MM NOT_NAMED 1900-09-15 18:00:00 NR 26.2863 120.378 main 44 19 __________P___ -1 26.2863 120.378 4 7 294
1900254N25134 1900 27 WP MM NOT_NAMED 1900-09-15 21:00:00 NR 26.4221 120.045 main 19 0 __________P___ -1 26.4221 120.045 4 7 296
1900254N25134 1900 27 WP MM NOT_NAMED 1900-09-16 00:00:00 NR 26.5708 119.717 main 11 0 __________P___ -1 26.5708 119.717 4 7 299
1900254N25134 1900 27 WP MM NOT_NAMED 1900-09-16 03:00:00 NR 26.7387 119.401 main 0 0 __________P___ -1 26.7387 119.401 4 7 301
1900254N25134 1900 27 WP MM NOT_NAMED 1900-09-16 04:00:00 NR 26.8000 119.300 main 0 0 __________O___ -1 26.8000 119.300 7 7 305
1900254N25134 1900 27 WP MM NOT_NAMED 1900-09-16 06:00:00 NR 26.9248 119.102 main 0 0 __________P___ -1 26.9248 119.102 7 7 308
1900254N25134 1900 27 WP MM NOT_NAMED 1900-09-16 09:00:00 NR 27.1309 118.819 main 0 0 __________P___ -1 27.1309 118.819 7 7 311
1900254N25134 1900 27 WP MM NOT_NAMED 1900-09-16 12:00:00 NR 27.3597 118.547 main 0 0 __________P___ -1 27.3597 118.547 7 7 315
1900254N25134 1900 27 WP MM NOT_NAMED 1900-09-16 15:00:00 NR 27.6112 118.286 main 0 0 __________P___ -1 27.6112 118.286 7 7 318
1900254N25134 1900 27 WP MM NOT_NAMED 1900-09-16 16:00:00 NR 27.7000 118.200 main 0 0 __________O___ -1 27.7000 118.200 7 7 320
1900254N25134 1900 27 WP MM NOT_NAMED 1900-09-16 18:00:00 NR 27.8849 118.030 main 0 0 __________P___ -1 27.8849 118.030 7 7 322
1900254N25134 1900 27 WP MM NOT_NAMED 1900-09-16 21:00:00 NR 28.1773 117.779 main 0 0 __________P___ -1 28.1773 117.779 7 7 324
1900254N25134 1900 27 WP MM NOT_NAMED 1900-09-17 00:00:00 NR 28.4826 117.531 main 0 0 __________P___ -1 28.4826 117.531 7 8 325
1900254N25134 1900 27 WP MM NOT_NAMED 1900-09-17 03:00:00 NR 28.7952 117.283 main 0 0 __________P___ -1 28.7952 117.283 7 8 325
1900254N25134 1900 27 WP MM NOT_NAMED 1900-09-17 04:00:00 NR 28.9000 117.200 main 0 __________O___ -1 28.9000 117.200 7 8 327

デジタル台風データ・検索

IBTrACS Databaseについて

本データベースは、米国NOAAが公開する1842年以降の世界の熱帯低気圧のベストトラックデータアーカイブInternational Best Track Archive for Climate Stewardship (IBTrACS)を、ウェブで閲覧しやすい形式に変換したものです。

最終更新日:2021-10-21